Weather - Helsinki Query any day in the database

Current weather  

Weather data for a selected day (2006-01-01 -2020-10-30)
Enter date:     <-     scroll days         ->
day curves
Low temperature°C -6.006:50
High temperature°C +10.014:50
Low wind chill°C -9.805:50
Average temperature°C +1.4 
High wind speed (10 min) m/s 5.813:50
Low pressurehPa 1049.023:50
High pressurehPa 1051.015:20
Low R.H% 2613:20
High R.H% 9206:20
Day weather data as a table
Date Time Temp
°C
Chill
°C
Pressure
hPA
Wind
m/s
Hum
%
Precip
mm
2015-03-16 23:50:00 -3.0  -6.2  1049.0 2.2 79 -
2015-03-16 23:20:00 -2.0  -5.6  1049.0 2.7 68 -
2015-03-16 22:50:00 -3.0  -6.8  1049.0 2.7 73 -
2015-03-16 22:20:00 -1.0  -2.6  1049.0 1.3 63 -
2015-03-16 21:50:00 -1.0  -3.9  1050.0 2.2 63 -
2015-03-16 21:20:00 0.0  -2.7  1050.0 2.2 54 -
2015-03-16 20:50:00 1.0  -0.3  1050.0 1.3 50 -
2015-03-16 20:20:00 1.0  -0.3  1050.0 1.3 47 -
2015-03-16 19:50:00 3.0  2.0  1050.0 1.3 37 -
2015-03-16 19:20:00 3.0  2.0  1050.0 1.3 40 -
2015-03-16 18:50:00 4.0  1.5  1050.0 2.7 41 -
2015-03-16 18:20:00 5.0  3.2  1050.0 2.2 38 -
2015-03-16 17:50:00 7.0  4.8  1050.0 3.1 30 -
2015-03-16 17:20:00 8.0  6.0  1050.0 3.1 31 -
2015-03-16 16:50:00 8.0  5.7  1050.0 3.6 28 -
2015-03-16 16:20:00 9.0  6.8  1050.0 4.0 26 -
2015-03-16 15:50:00 9.0  6.5  1050.0 4.5 26 -
2015-03-16 15:20:00 9.0  6.2  1051.0 5.4 26 -
2015-03-16 14:50:00 10.0  7.8  1051.0 4.5 27 -
2015-03-16 14:20:00 10.0  7.8  1051.0 4.5 27 -
2015-03-16 13:50:00 9.0  6.0  1051.0 5.8 29 -
2015-03-16 13:20:00 9.0  6.5  1051.0 4.5 26 -
2015-03-16 12:50:00 10.0  8.2  1051.0 3.6 31 -
2015-03-16 12:20:00 9.0  7.2  1051.0 3.1 34 -
2015-03-16 11:50:00 9.0  7.0  1051.0 3.6 34 -
2015-03-16 11:20:00 8.0  6.0  1051.0 3.1 39 -
2015-03-16 10:50:00 7.0  5.5  1051.0 2.2 42 -
2015-03-16 10:20:00 6.0  4.3  1051.0 2.2 41 -
2015-03-16 09:50:00 4.0  3.1  1051.0 1.3 60 -
2015-03-16 09:20:00 1.0  0.5  1051.0 0.9 69 -
2015-03-16 08:50:00 0.0  -1.4  1051.0 1.3 74 -
2015-03-16 08:20:00 -3.0  -6.2  1051.0 2.2 79 -
2015-03-16 07:50:00 -4.0  -7.4  1051.0 2.2 85 -
2015-03-16 07:20:00 -5.0  -7.1  1051.0 1.3 85 -
2015-03-16 06:50:00 -6.0  -8.2  1051.0 1.3 85 -
2015-03-16 06:20:00 -6.0  -8.2  1051.0 1.3 92 -
2015-03-16 05:50:00 -6.0  -9.8  1051.0 2.2 92 -
2015-03-16 05:20:00 -6.0  -9.8  1050.0 2.2 92 -
2015-03-16 04:50:00 -5.0  -8.6  1050.0 2.2 85 -
2015-03-16 04:20:00 -5.0  -9.2  1050.0 2.7 85 -
2015-03-16 03:50:00 -5.0  -8.6  1050.0 2.2 92 -
2015-03-16 03:20:00 -5.0  -6.1  1050.0 0.9 85 -
2015-03-16 02:50:00 -5.0  -8.6  1050.0 2.2 92 -
2015-03-16 02:20:00 -5.0  -7.1  1050.0 1.3 92 -
2015-03-16 01:50:00 -4.0  -7.4  1050.0 2.2 85 -
2015-03-16 01:20:00 -4.0  -7.4  1050.0 2.2 79 -
2015-03-16 00:50:00 -4.0  -7.4  1050.0 2.2 79 -
2015-03-16 00:20:00 -2.0  -5.1  1050.0 2.2 68 -
Unit conversions: